Pronóstico
Mapa Interactivo
Aviación
Climatología
Hidrometeorología
Agrometeorología
Estaciones Automáticas
Transparencia
OMM WMO
Portada
Institución
Noticias
Imágenes
Tsunami
Historial
Boletines y Alertas
Contactos
Buscar Contenidos
Informe del Tiempo

SADR31 MDSD 200100Z
METAR

METAR MDPP 200100Z 00000KT 9999 FEW018 27/25 Q1016 NOSIG=
METAR MDST 200100Z 12012KT 9999 FEW020 26/22 Q1017 NOSIG=
METAR MDPC 200100Z 07010KT 010V080 8000 VCRA SCT018 SCT080 26/24
Q1017=
METAR MDSD 200100Z 03004KT 9999 SCT020 27/23 Q1016 NOSIG=
METAR MDLR 200100Z 10004KT 9999 SCT018 27/23 Q1017 NOSIG=